createdAt,value
2022-09-30T00:01:52.066Z,10.25
2022-09-30T00:04:24.195Z,10.21
2022-09-30T00:06:55.093Z,10.19
2022-09-30T00:09:24.064Z,10.20
2022-09-30T00:11:52.996Z,10.19
2022-09-30T00:14:24.379Z,10.17
2022-09-30T00:16:54.467Z,10.17
2022-09-30T00:19:23.134Z,10.15
2022-09-30T00:21:51.798Z,10.20
2022-09-30T00:24:20.669Z,10.24
2022-09-30T00:26:49.863Z,10.24
2022-09-30T00:29:18.607Z,10.20
2022-09-30T00:31:47.465Z,10.22
2022-09-30T00:34:18.552Z,10.20
2022-09-30T00:36:50.040Z,10.24
2022-09-30T00:39:21.239Z,10.22
2022-09-30T00:41:53.419Z,10.22
2022-09-30T00:44:48.054Z,10.21
2022-09-30T00:47:50.444Z,10.26
2022-09-30T00:50:42.437Z,10.22
2022-09-30T00:53:18.000Z,10.16
2022-09-30T00:55:56.100Z,10.17
2022-09-30T00:58:30.870Z,10.16
2022-09-30T01:01:02.915Z,10.17
2022-09-30T01:03:34.282Z,10.14
2022-09-30T01:06:04.941Z,10.15
2022-09-30T01:08:38.384Z,10.18
2022-09-30T01:11:08.498Z,10.20
2022-09-30T01:13:40.470Z,10.19
2022-09-30T01:16:31.461Z,10.18
2022-09-30T01:19:25.456Z,10.19
2022-09-30T01:22:19.524Z,10.18
2022-09-30T01:25:22.195Z,10.14
2022-09-30T01:28:43.179Z,10.17
2022-09-30T01:31:32.447Z,10.13
2022-09-30T01:34:15.522Z,10.16
2022-09-30T01:37:09.180Z,10.19
2022-09-30T01:39:52.718Z,10.13
2022-09-30T01:42:29.318Z,10.13
2022-09-30T01:45:06.371Z,10.15
2022-09-30T01:47:45.902Z,10.13
2022-09-30T01:50:23.285Z,10.15
2022-09-30T01:53:04.067Z,10.13
2022-09-30T01:55:42.236Z,10.22
2022-09-30T01:58:18.220Z,10.18
2022-09-30T02:00:56.156Z,10.24
2022-09-30T02:03:34.009Z,10.21
2022-09-30T02:06:09.018Z,10.22
2022-09-30T02:08:45.109Z,10.20
2022-09-30T02:11:18.963Z,10.18
2022-09-30T02:13:55.361Z,10.15
2022-09-30T02:16:50.980Z,10.23
2022-09-30T02:19:28.312Z,10.17
2022-09-30T02:22:02.633Z,10.13
2022-09-30T02:24:37.833Z,10.08
2022-09-30T02:27:13.539Z,10.15
2022-09-30T02:29:49.812Z,10.10
2022-09-30T02:32:26.094Z,10.20
2022-09-30T02:35:01.618Z,10.19
2022-09-30T02:37:37.061Z,10.15
2022-09-30T02:40:14.916Z,10.13
2022-09-30T02:42:46.933Z,10.14
2022-09-30T02:45:20.081Z,10.15
2022-09-30T02:48:11.798Z,10.15
2022-09-30T02:50:50.362Z,10.10
2022-09-30T02:53:27.645Z,10.15
2022-09-30T02:56:21.264Z,10.14
2022-09-30T02:58:54.145Z,10.20
2022-09-30T03:01:23.329Z,10.20
2022-09-30T03:03:55.896Z,10.21
2022-09-30T03:06:26.912Z,10.17
2022-09-30T03:08:55.828Z,10.19
2022-09-30T03:11:29.050Z,10.22
2022-09-30T03:14:28.968Z,10.22
2022-09-30T03:17:25.637Z,10.20
2022-09-30T03:20:21.005Z,10.13
2022-09-30T03:23:26.384Z,10.09
2022-09-30T03:26:04.321Z,10.01
2022-09-30T03:28:39.660Z,10.08
2022-09-30T03:31:21.983Z,10.08
2022-09-30T03:33:56.729Z,10.04
2022-09-30T03:36:36.187Z,10.12
2022-09-30T03:39:19.042Z,10.06
2022-09-30T03:41:57.348Z,10.04
2022-09-30T03:44:34.455Z,9.99
2022-09-30T03:47:09.655Z,10.08
2022-09-30T03:49:45.162Z,9.97
2022-09-30T03:52:15.911Z,10.06
2022-09-30T03:54:56.573Z,10.09
2022-09-30T03:57:29.485Z,10.10
2022-09-30T03:59:59.074Z,10.09
2022-09-30T04:02:29.480Z,10.10
2022-09-30T04:04:59.186Z,10.06
2022-09-30T04:07:27.873Z,10.02
2022-09-30T04:09:58.124Z,10.12
2022-09-30T04:12:26.944Z,10.16
2022-09-30T04:14:55.613Z,10.13
2022-09-30T04:17:24.606Z,10.11
2022-09-30T04:19:53.428Z,10.15
2022-09-30T04:22:25.648Z,10.13
2022-09-30T04:24:55.128Z,10.20
2022-09-30T04:27:25.275Z,10.05
2022-09-30T04:29:53.967Z,10.13
2022-09-30T04:32:25.704Z,10.13
2022-09-30T04:34:54.789Z,10.16
2022-09-30T04:37:24.091Z,10.18
2022-09-30T04:39:52.771Z,10.16
2022-09-30T04:42:21.702Z,10.21
2022-09-30T04:44:51.816Z,10.22
2022-09-30T04:47:20.611Z,10.19
2022-09-30T04:49:49.337Z,10.25
2022-09-30T04:52:18.053Z,10.35
2022-09-30T04:54:46.677Z,10.37
2022-09-30T04:57:15.386Z,10.41
2022-09-30T04:59:44.277Z,10.42
2022-09-30T05:02:15.721Z,10.45
2022-09-30T05:04:44.419Z,10.46
2022-09-30T05:07:13.868Z,10.48
2022-09-30T05:09:42.681Z,10.43
2022-09-30T05:12:12.437Z,10.44
2022-09-30T05:14:41.071Z,10.47
2022-09-30T05:17:10.282Z,10.48
2022-09-30T05:19:40.383Z,10.47
2022-09-30T05:22:09.083Z,10.51
2022-09-30T05:24:37.784Z,10.56
2022-09-30T05:27:07.062Z,10.52
2022-09-30T05:29:35.756Z,10.56
2022-09-30T05:32:04.511Z,10.56
2022-09-30T05:34:33.179Z,10.57
2022-09-30T05:37:03.252Z,10.54
2022-09-30T05:39:31.797Z,10.57
2022-09-30T05:42:01.180Z,10.61
2022-09-30T05:44:30.008Z,10.67
2022-09-30T05:46:59.252Z,10.61
2022-09-30T05:49:28.272Z,10.61
2022-09-30T05:51:56.927Z,10.65
2022-09-30T05:54:26.956Z,10.67
2022-09-30T05:56:55.736Z,10.70
2022-09-30T05:59:24.453Z,10.67
2022-09-30T06:01:53.914Z,10.76
2022-09-30T06:04:22.848Z,10.75
2022-09-30T06:06:51.575Z,10.77
2022-09-30T06:09:20.301Z,10.73
2022-09-30T06:11:50.673Z,10.80
2022-09-30T06:14:20.049Z,10.81
2022-09-30T06:16:48.765Z,10.99
2022-09-30T06:19:17.592Z,10.94
2022-09-30T06:21:46.300Z,10.92
2022-09-30T06:24:14.956Z,10.95
2022-09-30T06:26:43.693Z,10.99
2022-09-30T06:29:14.569Z,10.99
2022-09-30T06:31:43.554Z,11.05
2022-09-30T06:34:12.290Z,11.06
2022-09-30T06:36:40.985Z,11.15
2022-09-30T06:39:13.493Z,11.15
2022-09-30T06:41:44.094Z,11.29
2022-09-30T06:44:20.119Z,11.29
2022-09-30T06:46:53.903Z,11.34
2022-09-30T06:49:23.986Z,11.46
2022-09-30T06:51:53.279Z,11.47
2022-09-30T06:54:22.025Z,11.44
2022-09-30T06:56:53.056Z,11.56
2022-09-30T06:59:23.376Z,11.56
2022-09-30T07:01:52.359Z,11.51
2022-09-30T07:04:21.318Z,11.42
2022-09-30T07:06:50.911Z,11.35
2022-09-30T07:09:19.856Z,11.29
2022-09-30T07:11:50.951Z,11.29
2022-09-30T07:14:23.805Z,11.25
2022-09-30T07:16:53.719Z,11.08
2022-09-30T07:19:23.696Z,10.95
2022-09-30T07:21:53.021Z,11.01
2022-09-30T07:24:23.840Z,11.17
2022-09-30T07:26:52.586Z,11.08
2022-09-30T07:29:22.872Z,11.28
2022-09-30T07:31:51.850Z,11.29
2022-09-30T07:34:20.525Z,11.26
2022-09-30T07:36:49.621Z,11.23
2022-09-30T07:39:18.730Z,11.30
2022-09-30T07:41:47.447Z,11.21
2022-09-30T07:44:16.772Z,11.38
2022-09-30T07:46:47.131Z,11.27
2022-09-30T07:49:25.479Z,11.32
2022-09-30T07:51:58.501Z,11.43
2022-09-30T07:54:30.324Z,11.29
2022-09-30T07:57:10.258Z,11.44
2022-09-30T07:59:43.243Z,11.40
2022-09-30T08:02:18.354Z,11.31
2022-09-30T08:04:48.689Z,11.14
2022-09-30T08:07:19.794Z,11.16
2022-09-30T08:09:49.608Z,11.12
2022-09-30T08:12:20.886Z,11.12
2022-09-30T08:14:49.639Z,11.06
2022-09-30T08:17:22.801Z,11.06
2022-09-30T08:19:52.580Z,10.94
2022-09-30T08:22:21.915Z,11.00
2022-09-30T08:24:50.579Z,11.04
2022-09-30T08:27:19.386Z,11.13
2022-09-30T08:29:55.258Z,11.06
2022-09-30T08:32:27.132Z,11.04
2022-09-30T08:34:55.815Z,11.15
2022-09-30T08:37:25.042Z,11.11
2022-09-30T08:39:53.800Z,11.14
2022-09-30T08:42:51.795Z,11.04
2022-09-30T08:45:41.580Z,11.18
2022-09-30T08:48:36.732Z,11.13
2022-09-30T08:51:25.046Z,11.32
2022-09-30T08:53:55.931Z,11.41
2022-09-30T08:56:30.757Z,11.42
2022-09-30T08:59:08.139Z,11.41
2022-09-30T09:01:42.406Z,11.48
2022-09-30T09:04:13.993Z,11.52
2022-09-30T09:06:55.291Z,11.52
2022-09-30T09:09:59.652Z,11.55
2022-09-30T09:12:46.858Z,11.50
2022-09-30T09:15:31.616Z,11.51
2022-09-30T09:18:28.262Z,11.46
2022-09-30T09:21:00.797Z,11.48
2022-09-30T09:23:34.636Z,11.50
2022-09-30T09:26:05.359Z,11.54
2022-09-30T09:28:42.839Z,11.64
2022-09-30T09:31:20.419Z,11.73
2022-09-30T09:33:49.307Z,11.74
2022-09-30T09:36:37.835Z,11.64
2022-09-30T09:39:39.895Z,11.73
2022-09-30T09:42:30.847Z,11.79
2022-09-30T09:45:04.804Z,11.82
2022-09-30T09:47:34.384Z,11.86
2022-09-30T09:50:05.458Z,11.92
2022-09-30T09:52:56.318Z,12.02
2022-09-30T09:55:25.714Z,12.11
2022-09-30T09:58:09.243Z,12.20
2022-09-30T10:00:56.238Z,12.39
2022-09-30T10:03:28.472Z,12.44
2022-09-30T10:06:07.421Z,12.41
2022-09-30T10:08:41.579Z,12.37
2022-09-30T10:11:23.907Z,12.36
2022-09-30T10:13:58.574Z,12.31
2022-09-30T10:16:36.176Z,12.23
2022-09-30T10:19:19.926Z,12.06
2022-09-30T10:21:48.720Z,12.08
2022-09-30T10:24:31.113Z,12.13
2022-09-30T10:26:59.871Z,12.07
2022-09-30T10:29:32.834Z,12.11
2022-09-30T10:32:04.284Z,11.99
2022-09-30T10:34:38.029Z,12.07
2022-09-30T10:37:15.334Z,12.06
2022-09-30T10:39:56.107Z,11.96
2022-09-30T10:42:27.681Z,11.91
2022-09-30T10:45:00.373Z,11.93
2022-09-30T10:47:36.422Z,11.85
2022-09-30T10:50:13.310Z,11.93
2022-09-30T10:52:56.743Z,11.87
2022-09-30T10:55:37.715Z,11.87
2022-09-30T10:58:32.035Z,11.81
2022-09-30T11:01:13.421Z,11.85
2022-09-30T11:04:02.957Z,11.85
2022-09-30T11:06:39.990Z,11.87
2022-09-30T11:09:18.705Z,11.83
2022-09-30T11:11:56.113Z,11.82
2022-09-30T11:14:37.303Z,11.80
2022-09-30T11:17:24.582Z,11.79
2022-09-30T11:20:07.556Z,11.62
2022-09-30T11:22:48.902Z,11.53
2022-09-30T11:25:24.579Z,11.47
2022-09-30T11:28:19.988Z,11.25
2022-09-30T11:31:06.964Z,11.13
2022-09-30T11:34:04.461Z,11.04
2022-09-30T11:36:48.343Z,10.94
2022-09-30T11:39:51.616Z,10.89
2022-09-30T11:42:34.505Z,10.86
2022-09-30T11:45:25.405Z,10.77
2022-09-30T11:48:19.736Z,10.80
2022-09-30T11:51:03.808Z,10.82
2022-09-30T11:53:49.351Z,10.80
2022-09-30T11:56:38.032Z,10.70
2022-09-30T11:59:17.319Z,10.58
2022-09-30T12:01:53.271Z,10.43
2022-09-30T12:04:31.665Z,10.46
2022-09-30T12:07:05.629Z,10.44
2022-09-30T12:09:41.949Z,10.33
2022-09-30T12:12:17.122Z,10.29
2022-09-30T12:14:51.339Z,10.29
2022-09-30T12:17:32.635Z,10.28
2022-09-30T12:20:09.383Z,10.30
2022-09-30T12:22:43.490Z,10.36
2022-09-30T12:25:21.050Z,10.33
2022-09-30T12:27:58.787Z,10.43
2022-09-30T12:30:30.960Z,10.47
2022-09-30T12:33:34.118Z,10.57
2022-09-30T12:36:23.990Z,10.64
2022-09-30T12:39:33.086Z,10.75
2022-09-30T12:42:27.222Z,10.82
2022-09-30T12:45:30.895Z,11.02
2022-09-30T12:48:05.322Z,11.13
2022-09-30T12:50:43.571Z,11.28
2022-09-30T12:53:20.757Z,11.31
2022-09-30T12:55:50.714Z,11.35
2022-09-30T12:58:32.441Z,11.24
2022-09-30T13:01:05.752Z,11.26
2022-09-30T13:04:33.381Z,11.33
2022-09-30T13:07:24.881Z,11.36
2022-09-30T13:10:17.299Z,11.48
2022-09-30T13:12:47.867Z,11.51
2022-09-30T13:15:44.423Z,11.59
2022-09-30T13:19:05.141Z,11.60
2022-09-30T13:21:33.899Z,11.57
2022-09-30T13:24:05.647Z,11.66
2022-09-30T13:26:48.576Z,11.66
2022-09-30T13:29:40.031Z,11.67
2022-09-30T13:32:11.587Z,11.68
2022-09-30T13:34:58.543Z,11.71
2022-09-30T13:37:43.182Z,11.65
2022-09-30T13:40:49.884Z,11.59
2022-09-30T13:43:28.246Z,11.59
2022-09-30T13:46:00.345Z,11.64
2022-09-30T13:48:34.410Z,11.67
2022-09-30T13:51:12.298Z,11.75
2022-09-30T13:53:48.163Z,11.82
2022-09-30T13:56:23.729Z,11.84
2022-09-30T13:59:34.532Z,11.71
2022-09-30T14:02:36.660Z,11.66
2022-09-30T14:05:40.266Z,11.57
2022-09-30T14:09:06.809Z,11.48
2022-09-30T14:12:12.432Z,11.44
2022-09-30T14:15:24.487Z,11.39
2022-09-30T14:18:44.316Z,11.43
2022-09-30T14:21:34.189Z,11.45
2022-09-30T14:24:10.226Z,11.43
2022-09-30T14:27:20.862Z,11.32
2022-09-30T14:30:04.424Z,11.21
2022-09-30T14:32:47.536Z,11.27
2022-09-30T14:35:21.209Z,11.16
2022-09-30T14:37:54.523Z,11.15
2022-09-30T14:40:30.691Z,11.24
2022-09-30T14:43:05.375Z,11.18
2022-09-30T14:45:37.682Z,11.16
2022-09-30T14:48:12.299Z,11.05
2022-09-30T14:50:54.244Z,11.00
2022-09-30T14:53:30.755Z,10.99
2022-09-30T14:56:01.077Z,10.95
2022-09-30T14:58:33.307Z,10.98
2022-09-30T15:01:15.197Z,11.11
2022-09-30T15:03:48.640Z,10.93
2022-09-30T15:06:24.348Z,10.94
2022-09-30T15:09:02.543Z,10.87
2022-09-30T15:11:33.902Z,10.89
2022-09-30T15:14:12.694Z,10.87
2022-09-30T15:16:48.456Z,10.85
2022-09-30T15:19:22.763Z,10.85
2022-09-30T15:21:55.085Z,10.80
2022-09-30T15:24:27.798Z,10.71
2022-09-30T15:26:57.676Z,10.62
2022-09-30T15:29:28.330Z,10.52
2022-09-30T15:32:06.691Z,10.46
2022-09-30T15:34:35.422Z,10.41
2022-09-30T15:37:07.528Z,10.39
2022-09-30T15:40:00.309Z,10.38
2022-09-30T15:42:38.277Z,10.33
2022-09-30T15:45:35.136Z,10.27
2022-09-30T15:48:07.971Z,10.18
2022-09-30T15:50:39.686Z,10.13
2022-09-30T15:53:22.672Z,10.06
2022-09-30T15:55:55.844Z,10.06
2022-09-30T15:58:39.061Z,10.00
2022-09-30T16:01:22.199Z,9.98
2022-09-30T16:03:55.860Z,9.89
2022-09-30T16:06:35.625Z,9.82
2022-09-30T16:09:09.153Z,9.83
2022-09-30T16:11:42.100Z,9.84
2022-09-30T16:14:19.498Z,9.89
2022-09-30T16:16:57.532Z,9.91
2022-09-30T16:19:28.266Z,9.89
2022-09-30T16:21:58.610Z,9.79
2022-09-30T16:24:49.153Z,9.71
2022-09-30T16:27:30.491Z,9.57
2022-09-30T16:30:00.825Z,9.50
2022-09-30T16:32:41.630Z,9.43
2022-09-30T16:35:19.733Z,9.43
2022-09-30T16:37:50.012Z,9.34
2022-09-30T16:40:26.720Z,9.31
2022-09-30T16:42:56.096Z,9.29
2022-09-30T16:45:25.704Z,9.27
2022-09-30T16:47:58.446Z,9.28
2022-09-30T16:50:41.358Z,9.24
2022-09-30T16:53:10.953Z,9.19
2022-09-30T16:55:43.185Z,9.19
2022-09-30T16:58:13.875Z,9.10
2022-09-30T17:00:45.606Z,9.06
2022-09-30T17:03:22.881Z,9.14
2022-09-30T17:05:53.244Z,9.15
2022-09-30T17:08:23.997Z,9.09
2022-09-30T17:10:53.243Z,9.15
2022-09-30T17:13:22.410Z,9.11
2022-09-30T17:15:55.226Z,9.19
2022-09-30T17:18:25.867Z,9.20
2022-09-30T17:20:56.102Z,9.15
2022-09-30T17:23:27.084Z,9.17
2022-09-30T17:25:59.566Z,9.15
2022-09-30T17:28:30.005Z,9.08
2022-09-30T17:30:59.124Z,9.10
2022-09-30T17:33:33.371Z,9.05
2022-09-30T17:36:06.312Z,8.99
2022-09-30T17:38:36.558Z,8.97
2022-09-30T17:41:29.717Z,8.89
2022-09-30T17:44:02.588Z,8.85
2022-09-30T17:46:43.910Z,8.84
2022-09-30T17:49:21.948Z,8.89
2022-09-30T17:51:53.535Z,8.84
2022-09-30T17:54:23.661Z,8.80
2022-09-30T17:56:53.025Z,8.88
2022-09-30T17:59:26.166Z,8.80
2022-09-30T18:01:56.458Z,8.73
2022-09-30T18:04:27.164Z,8.62
2022-09-30T18:06:57.401Z,8.56
2022-09-30T18:09:26.736Z,8.52
2022-09-30T18:11:56.507Z,8.49
2022-09-30T18:14:26.897Z,8.40
2022-09-30T18:16:56.049Z,8.36
2022-09-30T18:19:26.892Z,8.39
2022-09-30T18:21:56.224Z,8.42
2022-09-30T18:24:39.264Z,8.34
2022-09-30T18:27:08.578Z,8.32
2022-09-30T18:29:38.642Z,8.20
2022-09-30T18:32:08.990Z,8.14
2022-09-30T18:34:39.558Z,8.11
2022-09-30T18:37:08.810Z,8.04
2022-09-30T18:39:39.804Z,7.96
2022-09-30T18:42:09.664Z,7.91
2022-09-30T18:44:42.594Z,7.94
2022-09-30T18:47:12.145Z,7.86
2022-09-30T18:49:42.800Z,7.78
2022-09-30T18:52:12.389Z,7.82
2022-09-30T18:54:46.881Z,7.78
2022-09-30T18:57:17.238Z,7.79
2022-09-30T18:59:47.117Z,7.71
2022-09-30T19:02:20.979Z,7.69
2022-09-30T19:04:53.481Z,7.68
2022-09-30T19:07:24.874Z,7.73
2022-09-30T19:09:54.203Z,7.68
2022-09-30T19:12:23.720Z,7.66
2022-09-30T19:15:00.558Z,7.63
2022-09-30T19:17:32.037Z,7.56
2022-09-30T19:20:03.959Z,7.58
2022-09-30T19:22:37.449Z,7.66
2022-09-30T19:25:07.613Z,7.61
2022-09-30T19:27:39.457Z,7.69
2022-09-30T19:30:11.530Z,7.70
2022-09-30T19:32:41.545Z,7.70
2022-09-30T19:35:14.268Z,7.64
2022-09-30T19:37:59.189Z,7.64
2022-09-30T19:43:02.633Z,7.56
2022-09-30T19:45:32.128Z,7.59
2022-09-30T19:48:01.720Z,7.63
2022-09-30T19:50:32.429Z,7.68
2022-09-30T19:53:01.723Z,7.61
2022-09-30T19:55:48.955Z,7.66
2022-09-30T19:58:21.248Z,7.70
2022-09-30T20:00:56.500Z,7.67
2022-09-30T20:03:26.744Z,7.75
2022-09-30T20:06:03.929Z,7.66
2022-09-30T20:08:38.142Z,7.74
2022-09-30T20:11:10.133Z,7.69
2022-09-30T20:13:40.495Z,7.79
2022-09-30T20:16:14.598Z,7.78
2022-09-30T20:18:46.918Z,7.67
2022-09-30T20:21:18.698Z,7.66
2022-09-30T20:23:50.778Z,7.60
2022-09-30T20:26:20.061Z,7.59
2022-09-30T20:28:49.400Z,7.51
2022-09-30T20:31:21.258Z,7.50
2022-09-30T20:33:54.918Z,7.53
2022-09-30T20:36:27.127Z,7.44
2022-09-30T20:39:00.589Z,7.31
2022-09-30T20:41:37.475Z,7.42
2022-09-30T20:44:08.696Z,7.26
2022-09-30T20:46:38.060Z,7.24
2022-09-30T20:49:07.394Z,7.22
2022-09-30T20:51:38.042Z,7.13
2022-09-30T20:54:07.216Z,7.07
2022-09-30T20:57:05.355Z,7.12
2022-09-30T20:59:25.399Z,6.98
2022-09-30T21:01:54.333Z,7.08
2022-09-30T21:04:23.106Z,6.95
2022-09-30T21:06:54.361Z,6.92
2022-09-30T21:09:23.165Z,6.94
2022-09-30T21:11:52.111Z,7.03
2022-09-30T21:14:20.847Z,7.01
2022-09-30T21:16:49.586Z,7.08
2022-09-30T21:19:18.862Z,6.96
2022-09-30T21:21:47.748Z,7.04
2022-09-30T21:24:17.805Z,7.06
2022-09-30T21:26:46.564Z,7.05
2022-09-30T21:29:15.342Z,6.98
2022-09-30T21:31:44.154Z,6.90
2022-09-30T21:34:15.001Z,6.95
2022-09-30T21:36:43.736Z,6.84
2022-09-30T21:39:13.420Z,6.84
2022-09-30T21:41:44.812Z,6.87
2022-09-30T21:44:14.093Z,6.84
2022-09-30T21:46:48.022Z,6.83
2022-09-30T21:49:20.190Z,6.77
2022-09-30T21:51:49.315Z,6.72
2022-09-30T21:54:19.333Z,6.63
2022-09-30T21:56:49.543Z,6.63
2022-09-30T21:59:18.280Z,6.59
2022-09-30T22:01:47.922Z,6.59
2022-09-30T22:04:16.680Z,6.58
2022-09-30T22:06:54.734Z,6.54
2022-09-30T22:09:23.395Z,6.56
2022-09-30T22:11:53.807Z,6.61
2022-09-30T22:14:22.538Z,6.61
2022-09-30T22:16:51.788Z,6.52
2022-09-30T22:19:20.516Z,6.58
2022-09-30T22:21:49.527Z,6.61
2022-09-30T22:24:18.207Z,6.63
2022-09-30T22:26:47.261Z,6.58
2022-09-30T22:29:17.699Z,6.58
2022-09-30T22:31:46.524Z,6.60
2022-09-30T22:34:33.521Z,6.59
2022-09-30T22:37:19.711Z,6.55
2022-09-30T22:39:48.443Z,6.57
2022-09-30T22:42:18.222Z,6.62
2022-09-30T22:44:49.691Z,6.66
2022-09-30T22:47:18.566Z,6.56
2022-09-30T22:49:47.833Z,6.66
2022-09-30T22:52:16.471Z,6.65
2022-09-30T22:54:45.334Z,6.55
2022-09-30T22:57:14.078Z,6.59
2022-09-30T22:59:43.850Z,6.46
2022-09-30T23:02:15.945Z,6.51
2022-09-30T23:04:44.726Z,6.52
2022-09-30T23:07:13.515Z,6.50
2022-09-30T23:09:42.266Z,6.49
2022-09-30T23:12:11.753Z,6.46
2022-09-30T23:14:40.466Z,6.46
2022-09-30T23:17:09.120Z,6.47
2022-09-30T23:19:39.216Z,6.47
2022-09-30T23:22:08.087Z,6.40
2022-09-30T23:24:36.664Z,6.38
2022-09-30T23:27:05.501Z,6.44
2022-09-30T23:29:34.304Z,6.44
2022-09-30T23:32:03.402Z,6.34
2022-09-30T23:34:32.237Z,6.42
2022-09-30T23:37:02.364Z,6.30
2022-09-30T23:39:31.010Z,6.37
2022-09-30T23:41:59.869Z,6.42
2022-09-30T23:44:28.653Z,6.45
2022-09-30T23:47:14.548Z,6.49
2022-09-30T23:49:43.327Z,6.52
2022-09-30T23:52:14.764Z,6.59
2022-09-30T23:54:44.025Z,6.67
2022-09-30T23:57:13.001Z,6.75
2022-09-30T23:59:42.236Z,6.75
